Time;durP1;ratioP1;P1;durP2;ratioP2;P2;SDS_P1;SDS_P2;PMS_P1;PMS_P2;Temp;Humidity;BMP_temperature;BMP_pressure;BME280_temperature;BME280_humidity;BME280_pressure;Samples;Min_cycle;Max_cycle;Signal;HPM_P1;HPM_P2
2022/06/18 09:40:53;;;;;;;6.22;2.97;;;26.10;99.90;;;;;;5090854;27;20984;-75
2022/06/18 09:43:57;;;;;;;6.03;2.95;;;26.10;99.90;;;;;;5090683;28;20292;-75
2022/06/18 09:46:41;;;;;;;6.93;3.08;;;26.20;99.90;;;;;;5090865;28;20180;-75
2022/06/18 09:49:07;;;;;;;6.72;3.03;;;26.30;99.90;;;;;;5090849;28;20163;-75
2022/06/18 09:51:58;;;;;;;8.25;3.50;;;26.40;99.90;;;;;;5090683;28;20633;-75
2022/06/18 09:54:30;;;;;;;8.77;2.92;;;26.40;99.90;;;;;;5090758;28;20289;-75
2022/06/18 09:56:59;;;;;;;6.07;2.83;;;26.50;99.90;;;;;;5090662;28;20163;-74
2022/06/18 09:59:33;;;;;;;6.78;3.10;;;26.50;99.90;;;;;;5089230;28;20194;-75
2022/06/18 10:02:01;;;;;;;6.40;3.40;;;26.60;99.90;;;;;;5090481;28;20155;-75
2022/06/18 10:07:25;;;;;;;5.40;3.00;;;26.80;99.90;;;;;;5090668;28;20186;-75
2022/06/18 10:10:09;;;;;;;5.95;2.97;;;26.80;99.90;;;;;;5090483;28;20549;-75
2022/06/18 10:12:59;;;;;;;14.57;3.05;;;26.90;99.90;;;;;;5090259;28;20167;-75
2022/06/18 10:15:27;;;;;;;7.20;3.67;;;27.00;99.90;;;;;;5090043;28;20544;-75
2022/06/18 10:18:22;;;;;;;10.35;3.53;;;27.10;99.90;;;;;;5088864;28;20200;-75
2022/06/18 10:21:17;;;;;;;5.30;3.10;;;27.20;99.90;;;;;;5090151;28;20216;-75
2022/06/18 10:23:54;;;;;;;9.90;3.25;;;27.30;99.90;;;;;;5090190;28;20262;-75
2022/06/18 10:26:22;;;;;;;14.43;2.83;;;27.30;99.90;;;;;;5090148;28;20170;-75
2022/06/18 10:28:58;;;;;;;12.30;3.47;;;27.40;99.90;;;;;;5090119;28;20242;-75
2022/06/18 10:31:59;;;;;;;3.92;2.88;;;27.50;99.90;;;;;;5088745;28;20164;-75
2022/06/18 10:34:33;;;;;;;6.68;3.40;;;27.60;99.90;;;;;;5087788;28;20658;-74
2022/06/18 10:37:11;;;;;;;5.53;2.75;;;27.60;99.90;;;;;;5085542;28;20670;-75
2022/06/18 10:39:46;;;;;;;10.15;3.20;;;27.70;99.90;;;;;;5089548;28;20258;-75
2022/06/18 10:42:55;;;;;;;3.15;2.53;;;27.70;99.90;;;;;;5089760;28;20232;-75
2022/06/18 10:45:39;;;;;;;7.03;3.00;;;27.80;99.90;;;;;;5089651;28;20530;-75
2022/06/18 10:48:18;;;;;;;5.18;2.80;;;27.90;99.90;;;;;;5089633;28;20183;-75
2022/06/18 10:50:50;;;;;;;6.82;2.83;;;28.00;99.90;;;;;;5084331;28;20180;-74
2022/06/18 10:53:18;;;;;;;9.77;3.25;;;28.10;99.90;;;;;;5076032;28;20171;-75
2022/06/18 10:56:00;;;;;;;11.40;3.95;;;28.10;99.90;;;;;;5076096;28;20172;-74
2022/06/18 10:58:27;;;;;;;11.55;3.60;;;28.20;99.90;;;;;;5075914;28;20179;-75
2022/06/18 11:01:10;;;;;;;8.32;3.10;;;28.30;99.90;;;;;;5075976;28;20160;-75
2022/06/18 11:03:36;;;;;;;14.45;3.42;;;28.40;99.90;;;;;;5075930;28;20195;-74
2022/06/18 11:06:09;;;;;;;8.63;2.70;;;28.40;99.90;;;;;;5075767;28;20196;-75
2022/06/18 11:08:36;;;;;;;8.82;3.35;;;28.50;99.90;;;;;;5074584;28;20528;-75
2022/06/18 11:11:06;;;;;;;10.10;2.78;;;28.50;99.90;;;;;;5074492;28;20167;-75
2022/06/18 11:13:35;;;;;;;10.73;2.83;;;28.50;99.90;;;;;;5075771;28;20629;-75
2022/06/18 11:16:24;;;;;;;10.60;3.65;;;28.60;99.90;;;;;;5074406;28;20172;-75
2022/06/18 11:18:49;;;;;;;6.18;3.60;;;28.70;99.90;;;;;;5075575;28;20195;-75
2022/06/18 11:21:29;;;;;;;5.15;3.08;;;28.80;99.90;;;;;;5075536;28;20167;-75
2022/06/18 11:24:02;;;;;;;5.45;3.38;;;28.90;99.90;;;;;;5075567;28;20571;-74
2022/06/18 11:26:29;;;;;;;6.70;3.03;;;28.90;99.90;;;;;;5075512;28;20163;-75
2022/06/18 11:29:04;;;;;;;10.45;3.67;;;28.90;99.90;;;;;;5075534;28;20643;-74
2022/06/18 11:31:34;;;;;;;8.68;3.58;;;29.00;99.90;;;;;;5075349;28;20244;-75
2022/06/18 11:34:16;;;;;;;10.00;3.08;;;29.00;99.90;;;;;;5074150;28;20176;-75
2022/06/18 11:36:48;;;;;;;15.80;3.60;;;29.10;99.90;;;;;;5075319;28;20175;-75
2022/06/18 11:39:26;;;;;;;7.20;3.00;;;29.20;99.90;;;;;;5073709;28;20231;-75
2022/06/18 11:41:57;;;;;;;10.52;3.35;;;29.40;99.90;;;;;;5075113;28;20541;-75
2022/06/18 11:44:33;;;;;;;14.38;3.85;;;29.50;99.90;;;;;;5075184;28;20172;-75
2022/06/18 11:47:19;;;;;;;7.60;2.72;;;29.50;99.90;;;;;;5075064;28;20172;-75
2022/06/18 11:49:51;;;;;;;7.30;2.85;;;29.60;99.90;;;;;;5074981;28;20175;-75
2022/06/18 11:52:28;;;;;;;5.90;3.05;;;29.70;99.90;;;;;;5073671;28;20263;-75
2022/06/18 11:55:14;;;;;;;13.82;4.05;;;29.80;99.90;;;;;;5074967;28;20718;-74
2022/06/18 11:57:47;;;;;;;9.35;3.08;;;29.90;99.90;;;;;;5074829;28;20692;-75
2022/06/18 12:00:22;;;;;;;9.80;3.15;;;30.00;99.90;;;;;;5074809;28;20199;-75
2022/06/18 12:03:06;;;;;;;9.55;3.05;;;30.10;99.90;;;;;;5073768;28;20174;-75
2022/06/18 12:05:35;;;;;;;9.65;3.10;;;30.20;99.90;;;;;;5074724;28;20182;-75
2022/06/18 12:08:03;;;;;;;9.90;3.35;;;30.20;99.90;;;;;;5074658;28;20171;-75
2022/06/18 12:10:56;;;;;;;11.55;3.47;;;30.30;99.90;;;;;;5073304;28;20179;-75
2022/06/18 12:13:25;;;;;;;12.77;3.53;;;30.30;99.90;;;;;;5074502;28;20168;-75
2022/06/18 12:16:11;;;;;;;12.77;3.00;;;30.30;99.90;;;;;;5074474;28;20176;-75
2022/06/18 12:18:44;;;;;;;11.38;3.90;;;30.40;99.90;;;;;;5074440;28;20183;-75
2022/06/18 12:21:47;;;;;;;13.00;2.85;;;30.60;99.90;;;;;;5074419;28;20167;-75
2022/06/18 12:24:24;;;;;;;12.85;2.83;;;30.50;99.90;;;;;;5073073;28;20171;-75
2022/06/18 12:27:16;;;;;;;6.50;3.53;;;30.50;99.90;;;;;;5074247;28;20221;-75
2022/06/18 12:30:00;;;;;;;8.43;3.20;;;30.60;99.90;;;;;;5074306;28;20532;-75
2022/06/18 12:32:44;;;;;;;11.65;3.72;;;30.70;99.90;;;;;;5072954;28;20171;-75
2022/06/18 12:36:00;;;;;;;9.18;3.10;;;30.70;99.90;;;;;;5074115;28;20173;-75
2022/06/18 12:38:53;;;;;;;7.65;3.65;;;30.80;99.90;;;;;;5073889;28;20200;-75
2022/06/18 12:41:51;;;;;;;7.05;2.75;;;31.00;99.90;;;;;;5074007;28;20191;-75
2022/06/18 12:44:44;;;;;;;4.80;3.00;;;31.10;99.90;;;;;;5073937;28;20171;-74
2022/06/18 12:47:34;;;;;;;12.07;3.88;;;31.20;99.90;;;;;;5073925;28;20175;-75
2022/06/18 12:50:33;;;;;;;9.32;4.05;;;31.40;99.90;;;;;;5072596;28;20577;-76
2022/06/18 12:53:43;;;;;;;9.25;3.78;;;31.50;99.90;;;;;;5073811;28;20167;-75
2022/06/18 12:56:21;;;;;;;11.68;3.33;;;31.70;99.90;;;;;;5054815;28;20175;-75
2022/06/18 12:59:00;;;;;;;11.30;3.78;;;31.70;99.90;;;;;;5069898;28;20179;-75
2022/06/18 13:01:57;;;;;;;13.02;3.90;;;31.80;99.90;;;;;;5073693;28;20567;-76
2022/06/18 13:04:30;;;;;;;8.20;3.53;;;31.90;99.90;;;;;;5073631;28;20647;-75
2022/06/18 13:07:32;;;;;;;9.32;3.42;;;31.90;99.90;;;;;;5072454;28;20180;-75
2022/06/18 13:10:09;;;;;;;4.68;3.20;;;32.00;99.90;;;;;;5072360;28;20171;-75
2022/06/18 13:13:06;;;;;;;16.45;3.50;;;32.00;99.90;;;;;;5072281;28;20640;-75
2022/06/18 13:15:41;;;;;;;12.73;3.38;;;32.10;99.90;;;;;;5073292;28;20171;-75
2022/06/18 13:18:23;;;;;;;13.18;3.95;;;32.20;99.90;;;;;;5073524;28;20740;-75
2022/06/18 13:20:53;;;;;;;12.48;3.90;;;32.40;99.90;;;;;;5073483;28;20260;-75
2022/06/18 13:29:10;;;;;;;9.65;5.55;;;32.70;99.90;;;;;;5073661;28;20221;-75
2022/06/18 13:32:00;;;;;;;9.30;3.45;;;32.90;99.90;;;;;;5073335;28;20250;-74
2022/06/18 13:35:05;;;;;;;16.27;4.00;;;32.70;99.90;;;;;;5073220;28;20167;-74
2022/06/18 13:37:39;;;;;;;7.40;3.20;;;32.70;99.90;;;;;;5073411;28;20221;-75
2022/06/18 13:40:05;;;;;;;10.60;4.15;;;32.90;99.90;;;;;;5072950;28;20283;-75
2022/06/18 13:42:46;;;;;;;12.75;5.95;;;33.20;99.90;;;;;;5073156;28;20636;-75
2022/06/18 13:45:28;;;;;;;18.15;12.25;;;33.40;99.90;;;;;;5071987;28;20173;-76
2022/06/18 13:48:12;;;;;;;5.03;3.80;;;33.60;99.90;;;;;;5073276;28;20199;-75
2022/06/18 13:50:55;;;;;;;8.93;3.55;;;33.70;99.90;;;;;;5073165;28;20172;-75
2022/06/18 13:53:43;;;;;;;15.43;5.65;;;33.70;99.90;;;;;;5073167;28;20168;-75
2022/06/18 13:56:22;;;;;;;8.48;3.58;;;33.80;99.90;;;;;;5073082;28;20163;-75
2022/06/18 13:58:57;;;;;;;12.38;3.80;;;34.00;99.90;;;;;;5073072;28;20247;-75
2022/06/18 14:01:24;;;;;;;9.45;3.53;;;34.20;99.90;;;;;;5073097;28;20163;-75
2022/06/18 14:04:01;;;;;;;8.73;3.25;;;34.40;99.90;;;;;;5072658;28;20566;-76
2022/06/18 14:06:27;;;;;;;8.70;4.80;;;34.50;99.90;;;;;;5072953;28;20633;-76
2022/06/18 14:09:03;;;;;;;8.18;3.67;;;34.70;99.90;;;;;;5073015;28;20525;-76
2022/06/18 14:11:42;;;;;;;12.07;4.50;;;34.80;99.90;;;;;;5071731;28;20171;-76
2022/06/18 14:14:12;;;;;;;12.38;4.10;;;34.80;99.90;;;;;;5072909;28;20621;-76
2022/06/18 14:16:56;;;;;;;14.10;3.80;;;35.00;99.90;;;;;;5073012;28;20171;-75
2022/06/18 14:19:22;;;;;;;6.28;2.70;;;35.00;99.90;;;;;;5072780;28;20555;-76
2022/06/18 14:21:50;;;;;;;10.65;3.75;;;35.10;99.90;;;;;;5072865;28;20164;-75
2022/06/18 14:24:16;;;;;;;11.07;3.20;;;35.10;99.90;;;;;;5071569;28;20172;-76
2022/06/18 14:26:46;;;;;;;9.70;3.30;;;35.10;99.40;;;;;;5074950;28;20532;-75
2022/06/18 14:29:13;;;;;;;9.23;3.50;;;35.00;97.40;;;;;;5076519;28;20637;-75
2022/06/18 14:31:51;;;;;;;6.95;3.10;;;34.80;98.00;;;;;;5076546;28;20168;-75
2022/06/18 14:34:29;;;;;;;11.32;3.92;;;34.80;98.10;;;;;;5076501;28;20648;-76
2022/06/18 14:37:03;;;;;;;13.15;3.22;;;35.00;99.90;;;;;;5074997;28;20172;-76
2022/06/18 14:39:33;;;;;;;6.68;3.03;;;35.20;99.50;;;;;;5076161;28;20220;-76
2022/06/18 14:42:14;;;;;;;7.20;3.03;;;35.50;99.10;;;;;;5076403;28;20448;-75
2022/06/18 14:45:09;;;;;;;5.78;3.13;;;35.70;98.50;;;;;;5076436;28;20525;-76
2022/06/18 14:48:00;;;;;;;10.98;3.58;;;35.70;97.90;;;;;;5075796;28;20653;-75
2022/06/18 14:51:02;;;;;;;7.35;3.20;;;35.80;97.50;;;;;;5076164;28;20168;-76
2022/06/18 14:53:44;;;;;;;5.88;2.95;;;35.90;97.80;;;;;;5076079;28;20285;-76
2022/06/18 14:56:21;;;;;;;9.82;3.60;;;36.00;96.20;;;;;;5075990;28;20176;-77
2022/06/18 14:59:15;;;;;;;7.15;3.33;;;36.10;96.00;;;;;;5075965;28;20168;-76
2022/06/18 15:02:21;;;;;;;8.88;3.33;;;36.10;96.90;;;;;;5075881;28;20211;-77
2022/06/18 15:04:51;;;;;;;7.20;3.50;;;36.20;96.40;;;;;;5075477;28;20180;-76
2022/06/18 15:07:17;;;;;;;15.57;4.18;;;36.20;94.70;;;;;;5075726;28;20515;-75
2022/06/18 15:09:49;;;;;;;14.95;3.83;;;36.00;93.50;;;;;;5075653;28;20188;-75
2022/06/18 15:12:16;;;;;;;7.00;3.15;;;35.80;95.00;;;;;;5075614;28;20213;-75
2022/06/18 15:14:46;;;;;;;14.35;3.92;;;35.80;93.60;;;;;;5075597;28;20172;-75
2022/06/18 15:25:34;;;;;;;9.50;3.55;;;35.90;95.30;;;;;;5075769;28;20167;-75
2022/06/18 15:28:10;;;;;;;9.30;3.47;;;36.10;95.20;;;;;;5075532;28;20179;-76
2022/06/18 15:30:59;;;;;;;14.00;3.60;;;36.30;93.60;;;;;;5075319;28;20202;-76
2022/06/18 15:33:26;;;;;;;19.02;3.58;;;36.40;94.60;;;;;;5075424;28;20160;-76
2022/06/18 15:35:54;;;;;;;9.60;3.40;;;36.50;93.20;;;;;;5075322;28;20168;-76
2022/06/18 15:38:29;;;;;;;4.20;3.28;;;36.40;91.30;;;;;;5075363;28;20172;-76
2022/06/18 15:41:02;;;;;;;5.97;3.42;;;36.50;92.50;;;;;;5075225;28;20548;-76
2022/06/18 15:43:51;;;;;;;8.07;4.22;;;36.50;91.70;;;;;;5075309;28;20245;-76
2022/06/18 15:46:24;;;;;;;10.20;3.75;;;36.40;91.70;;;;;;5071015;28;20180;-76
2022/06/18 15:48:53;;;;;;;10.45;3.58;;;36.30;91.40;;;;;;5075232;28;20171;-76
2022/06/18 15:51:23;;;;;;;7.72;2.95;;;36.30;91.80;;;;;;5075021;28;20171;-76
2022/06/18 15:53:55;;;;;;;9.75;3.53;;;36.10;91.30;;;;;;5075072;28;20174;-76
2022/06/18 15:56:26;;;;;;;11.48;3.78;;;36.00;91.80;;;;;;5073881;28;20254;-77
2022/06/18 15:58:52;;;;;;;10.80;3.80;;;36.10;92.00;;;;;;5075099;28;20164;-76
2022/06/18 16:01:20;;;;;;;10.90;3.50;;;36.20;92.90;;;;;;5074906;28;20172;-76
2022/06/18 16:03:47;;;;;;;10.70;3.60;;;36.20;91.70;;;;;;5073667;28;20258;-76
2022/06/18 16:06:18;;;;;;;13.52;3.65;;;36.30;91.40;;;;;;5074883;28;20214;-76
2022/06/18 16:09:03;;;;;;;13.23;3.83;;;36.00;91.50;;;;;;5074612;28;20176;-76
2022/06/18 16:11:35;;;;;;;11.95;3.08;;;35.90;92.40;;;;;;5074655;28;20164;-76
2022/06/18 16:14:09;;;;;;;6.30;3.08;;;36.00;91.20;;;;;;5074647;28;20178;-77
2022/06/18 16:16:42;;;;;;;12.52;4.00;;;36.00;90.90;;;;;;5074531;28;20177;-76
2022/06/18 16:19:08;;;;;;;9.93;3.22;;;36.00;91.70;;;;;;5074450;28;20168;-76
2022/06/18 16:21:44;;;;;;;15.65;4.07;;;36.00;93.80;;;;;;5074350;28;20176;-77
2022/06/18 16:24:20;;;;;;;7.93;4.03;;;36.10;91.00;;;;;;5074371;28;20171;-75
2022/06/18 16:26:52;;;;;;;10.07;3.15;;;36.00;90.90;;;;;;5074270;28;20258;-75
2022/06/18 16:29:22;;;;;;;10.93;4.78;;;36.00;91.10;;;;;;5074176;28;20563;-76
2022/06/18 16:31:48;;;;;;;9.55;3.30;;;36.00;92.80;;;;;;5074100;28;20168;-75
2022/06/18 16:34:13;;;;;;;9.48;3.40;;;36.20;92.00;;;;;;5074074;28;20247;-75
2022/06/18 16:37:15;;;;;;;7.30;3.85;;;36.20;91.30;;;;;;5074169;28;20203;-76
2022/06/18 16:40:08;;;;;;;12.45;3.72;;;36.30;91.20;;;;;;5072669;28;20645;-75
2022/06/18 16:42:41;;;;;;;9.55;4.10;;;36.40;92.50;;;;;;5073993;28;20172;-75
2022/06/18 16:45:19;;;;;;;7.70;3.78;;;36.40;92.80;;;;;;5073974;28;20624;-76
2022/06/18 16:47:46;;;;;;;5.95;3.80;;;36.10;92.00;;;;;;5073890;28;20174;-76
2022/06/18 16:50:20;;;;;;;11.73;5.45;;;36.10;94.70;;;;;;5073293;28;20641;-76
2022/06/18 16:52:51;;;;;;;4.82;3.42;;;35.80;92.60;;;;;;5073834;28;20175;-75
2022/06/18 16:55:19;;;;;;;7.75;3.92;;;35.60;92.70;;;;;;5073798;28;20178;-75
2022/06/18 16:57:44;;;;;;;11.55;6.50;;;35.40;93.70;;;;;;5073816;28;20168;-75
2022/06/18 17:00:36;;;;;;;6.40;3.75;;;35.40;93.90;;;;;;5073712;28;20573;-75
2022/06/18 17:03:02;;;;;;;11.43;3.50;;;35.60;94.90;;;;;;5073252;28;20210;-75
2022/06/18 17:05:27;;;;;;;11.93;6.13;;;35.50;92.60;;;;;;5072392;28;20526;-75
2022/06/18 17:07:53;;;;;;;17.65;10.10;;;35.50;92.90;;;;;;5073552;28;20216;-75
2022/06/18 17:10:23;;;;;;;10.80;5.63;;;35.60;94.40;;;;;;5073479;28;20226;-75
2022/06/18 17:12:50;;;;;;;14.40;7.85;;;35.60;93.70;;;;;;5073450;28;20160;-75
2022/06/18 17:15:17;;;;;;;13.70;7.80;;;35.50;94.10;;;;;;5072794;28;20172;-76
2022/06/18 17:17:46;;;;;;;10.70;5.72;;;35.50;94.20;;;;;;5071658;28;20263;-75
2022/06/18 17:20:16;;;;;;;9.98;5.07;;;35.60;93.70;;;;;;5073387;28;20167;-75
2022/06/18 17:22:43;;;;;;;9.45;5.25;;;35.40;94.10;;;;;;5073541;28;20176;-75
2022/06/18 17:33:22;;;;;;;77.95;20.13;;;35.20;97.70;;;;;;5073397;28;20205;-74
2022/06/18 17:35:50;;;;;;;241.88;29.25;;;35.10;97.30;;;;;;5072061;28;20580;-75
2022/06/18 17:38:18;;;;;;;135.43;30.23;;;35.00;98.80;;;;;;5073222;28;20502;-74
2022/06/18 17:40:44;;;;;;;112.70;22.17;;;34.80;99.40;;;;;;5073013;28;20231;-75
2022/06/18 17:43:13;;;;;;;60.90;12.35;;;34.70;99.90;;;;;;5073072;28;20261;-74
2022/06/18 17:45:39;;;;;;;341.48;41.72;;;34.60;99.90;;;;;;5073190;28;20191;-75
2022/06/18 17:48:25;;;;;;;86.07;16.48;;;34.40;99.90;;;;;;5072915;28;20211;-74
2022/06/18 17:50:51;;;;;;;25.40;5.88;;;34.20;99.90;;;;;;5072545;28;20239;-74
2022/06/18 17:53:17;;;;;;;62.88;16.13;;;34.10;99.90;;;;;;5072501;28;20167;-73
2022/06/18 17:55:42;;;;;;;85.13;11.95;;;33.90;99.90;;;;;;5073138;28;20164;-74
2022/06/18 17:58:11;;;;;;;71.30;12.05;;;33.90;99.90;;;;;;5073063;28;20168;-74
2022/06/18 18:00:37;;;;;;;39.15;9.93;;;33.70;99.90;;;;;;5073493;28;20222;-77
2022/06/18 18:03:03;;;;;;;11.38;4.10;;;33.60;99.90;;;;;;5076995;28;20974;-74
2022/06/18 18:05:29;;;;;;;14.95;6.03;;;33.20;99.90;;;;;;5076734;28;20186;-81
2022/06/18 18:07:54;;;;;;;16.52;4.88;;;33.30;99.90;;;;;;5077003;28;20613;-73
2022/06/18 18:10:20;;;;;;;11.82;4.45;;;33.30;99.90;;;;;;5075641;28;20207;-73
2022/06/18 18:12:45;;;;;;;8.38;3.75;;;33.20;99.90;;;;;;5076858;28;20164;-73
2022/06/18 18:15:16;;;;;;;13.10;3.55;;;33.00;99.90;;;;;;5076905;28;20274;-74
2022/06/18 18:17:51;;;;;;;10.77;3.63;;;32.90;99.90;;;;;;5076804;28;20160;-73
2022/06/18 18:20:23;;;;;;;19.40;4.05;;;32.80;99.90;;;;;;5076783;28;20224;-73
2022/06/18 18:22:49;;;;;;;6.35;3.83;;;32.70;99.90;;;;;;5075508;28;20176;-73
2022/06/18 18:25:16;;;;;;;7.47;3.90;;;32.60;99.90;;;;;;5075351;28;20176;-73
2022/06/18 18:27:43;;;;;;;15.85;4.22;;;32.50;99.90;;;;;;5076479;28;20580;-73
2022/06/18 18:30:11;;;;;;;9.20;3.58;;;32.40;99.90;;;;;;5076283;28;20226;-73
2022/06/18 18:32:40;;;;;;;8.40;4.10;;;32.20;99.90;;;;;;5074956;28;20210;-73
2022/06/18 18:35:07;;;;;;;5.38;3.85;;;32.10;99.90;;;;;;5075182;28;20167;-74
2022/06/18 18:37:33;;;;;;;8.35;3.72;;;31.90;99.90;;;;;;5075092;28;20199;-73
2022/06/18 18:39:58;;;;;;;17.30;4.10;;;31.90;99.90;;;;;;5076203;28;20255;-73
2022/06/18 18:42:25;;;;;;;7.50;3.42;;;31.70;99.90;;;;;;5076294;28;20168;-73
2022/06/18 18:44:50;;;;;;;8.27;4.45;;;31.60;99.90;;;;;;5074734;28;20648;-73
2022/06/18 18:47:17;;;;;;;7.50;4.25;;;31.40;99.90;;;;;;5076165;28;20210;-73
2022/06/18 18:49:42;;;;;;;10.18;4.07;;;31.20;99.90;;;;;;5076111;28;20191;-73
2022/06/18 18:52:09;;;;;;;7.47;4.00;;;31.10;99.90;;;;;;5074660;28;20179;-73
2022/06/18 18:54:35;;;;;;;8.80;5.15;;;31.00;99.90;;;;;;5076033;28;20160;-72
2022/06/18 18:57:02;;;;;;;11.60;4.03;;;30.80;99.90;;;;;;5074680;28;20187;-72
2022/06/18 18:59:30;;;;;;;12.88;4.55;;;30.60;99.90;;;;;;5075641;28;20176;-72
2022/06/18 19:01:56;;;;;;;10.70;4.65;;;30.50;99.90;;;;;;5075762;28;20195;-72
2022/06/18 19:04:23;;;;;;;9.43;4.63;;;30.30;99.90;;;;;;5075786;28;20163;-73
2022/06/18 19:06:49;;;;;;;14.23;4.93;;;30.20;99.90;;;;;;5075718;28;20202;-73
2022/06/18 19:09:15;;;;;;;7.85;4.68;;;30.00;99.90;;;;;;5075650;28;20599;-73
2022/06/18 19:14:26;;;;;;;16.92;5.22;;;29.70;99.90;;;;;;5075889;28;20179;-72
2022/06/18 19:16:52;;;;;;;9.35;5.05;;;29.50;99.90;;;;;;5075636;28;20178;-72
2022/06/18 19:19:17;;;;;;;8.80;5.28;;;29.30;99.90;;;;;;5075456;28;20183;-72
2022/06/18 19:21:44;;;;;;;9.40;5.10;;;29.10;99.90;;;;;;5075192;28;20210;-72
